This is the latest recevied weather packets stored in our database for station/object KB0RPJ. If no packets are shown the sender has not sent any weather packets the latest 1 day(s).
| Time | Temp. | Humidity | Pressure | Rain* | Wind** | Luminosity | Snow |
|---|---|---|---|---|---|---|---|
| 1778119805 | 11.11° C | 43% | 1016.8 hPa | 0 mm | - | 0 W/m² | - |
| 1778118018 | 12.22° C | 40% | 1016.6 hPa | 0 mm | - | 0 W/m² | - |
| 1778117705 | 12.22° C | 39% | 1016.5 hPa | 0 mm | - | 0 W/m² | - |
| 1778117105 | 12.78° C | 39% | 1016.4 hPa | 0 mm | - | 0 W/m² | - |
| 1778116806 | 12.78° C | 37% | 1016.4 hPa | 0 mm | - | 0 W/m² | - |
| 1778116206 | 12.78° C | 37% | 1016.4 hPa | 0 mm | - | 5 W/m² | - |
| 1778115906 | 13.33° C | 37% | 1016.5 hPa | 0 mm | - | 7 W/m² | - |
| 1778115605 | 13.33° C | 35% | 1016.5 hPa | 0 mm | - | 11 W/m² | - |
| 1778115008 | 13.33° C | 36% | 1016.5 hPa | 0 mm | - | 18 W/m² | - |
| 1778114705 | 13.33° C | 35% | 1016.4 hPa | 0 mm | - | 22 W/m² | - |
| 1778109606 | 15° C | 32% | 1016.5 hPa | 0 mm | - | 294 W/m² | - |
| 1778108706 | 14.44° C | 33% | 1016.7 hPa | 0 mm | - | 373 W/m² | - |
| 1778106005 | 14.44° C | 31% | 1016.9 hPa | 0 mm | - | 183 W/m² | - |
| 1778105105 | 15° C | 33% | 1017 hPa | 0 mm | - | 262 W/m² | - |
| 1778101506 | 15.56° C | 35% | 1017.2 hPa | 0 mm | - | 309 W/m² | - |
| 1778101205 | 15.56° C | 34% | 1017.3 hPa | 0 mm | - | 604 W/m² | - |
| 1778098805 | 14.44° C | 33% | 1017.5 hPa | 0 mm | - | 864 W/m² | - |
| 1778098205 | 14.44° C | 34% | 1017.6 hPa | 0 mm | - | 918 W/m² | - |
| 1778097605 | 14.44° C | 39% | 1017.7 hPa | 0 mm | - | 922 W/m² | - |
| 1778097005 | 14.44° C | 35% | 1017.9 hPa | 0 mm | - | 708 W/m² | - |
| 1778094005 | 13.33° C | 38% | 1018.3 hPa | 0 mm | - | 852 W/m² | - |
| 1778092205 | 13.33° C | 39% | 1018.3 hPa | 0 mm | - | 924 W/m² | - |
| 1778091305 | 13.33° C | 38% | 1018.5 hPa | 0 mm | - | 1015 W/m² | - |
| 1778089205 | 12.22° C | 40% | 1018.7 hPa | 0 mm | - | 762 W/m² | - |
| 1778088905 | 12.22° C | 38% | 1018.9 hPa | 0 mm | - | 517 W/m² | - |
* Rain latest hour (hover to see other rain measurements)
** Current wind speed in m/s (hover to see current wind gust speed)